createdAt,value
2023-05-15T00:00:00.716Z,11.10
2023-05-15T00:02:28.142Z,11.10
2023-05-15T00:04:55.410Z,11.20
2023-05-15T00:07:22.547Z,11.30
2023-05-15T00:09:49.641Z,11.30
2023-05-15T00:12:17.165Z,11.20
2023-05-15T00:14:44.209Z,11.00
2023-05-15T00:17:12.555Z,11.10
2023-05-15T00:19:39.783Z,11.20
2023-05-15T00:22:06.936Z,11.30
2023-05-15T00:24:34.433Z,11.20
2023-05-15T00:27:02.068Z,11.20
2023-05-15T00:29:30.552Z,11.30
2023-05-15T00:31:57.634Z,11.30
2023-05-15T00:34:25.949Z,11.30
2023-05-15T00:36:53.032Z,11.20
2023-05-15T00:39:20.132Z,11.20
2023-05-15T00:41:50.051Z,11.20
2023-05-15T00:44:19.264Z,11.20
2023-05-15T00:46:47.098Z,11.20
2023-05-15T00:49:15.292Z,11.20
2023-05-15T00:51:42.669Z,11.20
2023-05-15T00:54:11.519Z,11.20
2023-05-15T00:56:39.328Z,11.30
2023-05-15T00:59:07.744Z,11.20
2023-05-15T01:01:35.281Z,11.20
2023-05-15T01:04:03.284Z,11.20
2023-05-15T01:06:31.601Z,11.20
2023-05-15T01:09:04.588Z,11.30
2023-05-15T01:11:36.456Z,11.30
2023-05-15T01:14:06.614Z,11.20
2023-05-15T01:16:34.285Z,11.20
2023-05-15T01:19:03.639Z,11.20
2023-05-15T01:22:13.825Z,11.20
2023-05-15T01:25:27.155Z,11.10
2023-05-15T01:28:02.885Z,11.00
2023-05-15T01:30:34.504Z,11.10
2023-05-15T01:33:17.690Z,11.20
2023-05-15T01:35:51.180Z,11.20
2023-05-15T01:38:55.874Z,11.20
2023-05-15T01:41:51.153Z,11.20
2023-05-15T01:44:30.485Z,11.10
2023-05-15T01:47:10.438Z,11.00
2023-05-15T01:49:38.998Z,11.00
2023-05-15T01:52:14.794Z,11.00
2023-05-15T01:54:42.609Z,11.10
2023-05-15T01:57:11.692Z,11.00
2023-05-15T01:59:39.609Z,10.90
2023-05-15T02:02:07.323Z,10.90
2023-05-15T02:04:34.678Z,10.90
2023-05-15T02:07:03.150Z,10.90
2023-05-15T02:09:31.329Z,10.90
2023-05-15T02:12:00.227Z,10.90
2023-05-15T02:14:29.760Z,10.90
2023-05-15T02:16:57.103Z,10.90
2023-05-15T02:19:24.659Z,10.90
2023-05-15T02:21:51.789Z,11.00
2023-05-15T02:24:18.944Z,11.00
2023-05-15T02:27:19.631Z,11.00
2023-05-15T02:30:10.587Z,11.00
2023-05-15T02:33:18.698Z,10.90
2023-05-15T02:36:21.918Z,10.90
2023-05-15T02:38:53.751Z,10.80
2023-05-15T02:41:23.217Z,10.70
2023-05-15T02:43:51.840Z,10.60
2023-05-15T02:46:22.248Z,10.60
2023-05-15T02:48:50.726Z,10.70
2023-05-15T02:51:17.986Z,10.70
2023-05-15T02:53:45.067Z,10.60
2023-05-15T02:56:12.219Z,10.70
2023-05-15T02:58:39.663Z,10.70
2023-05-15T03:01:07.118Z,10.60
2023-05-15T03:03:34.369Z,10.60
2023-05-15T03:06:01.622Z,10.60
2023-05-15T03:08:29.271Z,10.60
2023-05-15T03:10:56.386Z,10.50
2023-05-15T03:13:23.522Z,10.50
2023-05-15T03:15:50.670Z,10.40
2023-05-15T03:18:19.134Z,10.30
2023-05-15T03:20:49.140Z,10.30
2023-05-15T03:23:16.320Z,10.20
2023-05-15T03:25:43.475Z,10.10
2023-05-15T03:28:10.761Z,10.20
2023-05-15T03:30:37.788Z,10.20
2023-05-15T03:33:05.020Z,10.00
2023-05-15T03:35:32.553Z,9.90
2023-05-15T03:37:59.752Z,9.90
2023-05-15T03:40:26.834Z,9.90
2023-05-15T03:42:53.976Z,9.90
2023-05-15T03:45:21.511Z,9.90
2023-05-15T03:47:49.227Z,9.80
2023-05-15T03:50:16.616Z,9.70
2023-05-15T03:52:43.903Z,9.80
2023-05-15T03:55:11.225Z,9.90
2023-05-15T03:57:41.788Z,9.90
2023-05-15T04:00:11.191Z,9.90
2023-05-15T04:02:41.308Z,10.10
2023-05-15T04:05:09.376Z,10.10
2023-05-15T04:07:37.699Z,10.10
2023-05-15T04:10:05.645Z,10.10
2023-05-15T04:12:34.665Z,10.20
2023-05-15T04:15:31.210Z,10.20
2023-05-15T04:17:58.480Z,10.20
2023-05-15T04:20:26.109Z,10.20
2023-05-15T04:22:53.846Z,10.20
2023-05-15T04:25:21.028Z,10.30
2023-05-15T04:27:49.383Z,10.40
2023-05-15T04:30:16.998Z,10.40
2023-05-15T04:32:44.100Z,10.40
2023-05-15T04:35:13.515Z,10.50
2023-05-15T04:37:41.824Z,10.50
2023-05-15T04:40:09.835Z,10.60
2023-05-15T04:42:39.170Z,10.60
2023-05-15T04:45:08.022Z,10.60
2023-05-15T04:47:35.678Z,10.60
2023-05-15T04:50:03.093Z,10.60
2023-05-15T04:52:30.263Z,10.70
2023-05-15T04:54:57.385Z,10.70
2023-05-15T04:57:25.679Z,10.80
2023-05-15T04:59:52.989Z,10.80
2023-05-15T05:02:24.091Z,10.80
2023-05-15T05:04:51.367Z,10.70
2023-05-15T05:07:18.450Z,10.70
2023-05-15T05:09:45.769Z,10.80
2023-05-15T05:12:13.016Z,10.80
2023-05-15T05:14:42.332Z,10.90
2023-05-15T05:17:09.647Z,10.90
2023-05-15T05:19:36.799Z,10.90
2023-05-15T05:22:07.762Z,11.00
2023-05-15T05:24:38.264Z,11.10
2023-05-15T05:27:06.086Z,11.10
2023-05-15T05:29:33.167Z,11.40
2023-05-15T05:32:00.780Z,11.40
2023-05-15T05:34:28.087Z,11.40
2023-05-15T05:36:55.413Z,11.50
2023-05-15T05:39:22.445Z,11.50
2023-05-15T05:41:49.592Z,11.30
2023-05-15T05:44:16.740Z,11.40
2023-05-15T05:46:45.505Z,11.40
2023-05-15T05:49:12.764Z,11.30
2023-05-15T05:51:39.920Z,11.40
2023-05-15T05:54:07.396Z,11.60
2023-05-15T05:56:34.635Z,11.60
2023-05-15T05:59:02.226Z,11.60
2023-05-15T06:01:29.879Z,11.60
2023-05-15T06:03:57.662Z,11.70
2023-05-15T06:06:25.196Z,11.70
2023-05-15T06:08:54.881Z,11.60
2023-05-15T06:11:25.382Z,11.50
2023-05-15T06:13:52.824Z,11.60
2023-05-15T06:16:20.164Z,11.70
2023-05-15T06:18:47.530Z,11.70
2023-05-15T06:21:14.701Z,11.70
2023-05-15T06:23:41.852Z,11.70
2023-05-15T06:26:09.045Z,11.60
2023-05-15T06:28:36.072Z,11.70
2023-05-15T06:31:03.623Z,11.80
2023-05-15T06:33:31.322Z,11.80
2023-05-15T06:35:58.444Z,11.80
2023-05-15T06:38:25.542Z,11.80
2023-05-15T06:40:52.682Z,11.90
2023-05-15T06:43:19.724Z,11.90
2023-05-15T06:45:46.832Z,12.00
2023-05-15T06:48:14.021Z,11.90
2023-05-15T06:50:41.215Z,12.00
2023-05-15T06:53:08.507Z,11.90
2023-05-15T06:55:36.610Z,11.90
2023-05-15T06:58:04.473Z,12.10
2023-05-15T07:00:31.709Z,12.20
2023-05-15T07:02:58.839Z,12.30
2023-05-15T07:05:26.233Z,12.20
2023-05-15T07:07:53.423Z,12.00
2023-05-15T07:10:20.898Z,12.10
2023-05-15T07:12:47.961Z,12.10
2023-05-15T07:15:15.016Z,12.10
2023-05-15T07:17:42.205Z,12.10
2023-05-15T07:20:09.922Z,12.10
2023-05-15T07:22:44.481Z,12.20
2023-05-15T07:25:19.466Z,12.20
2023-05-15T07:27:46.497Z,12.10
2023-05-15T07:30:14.233Z,12.20
2023-05-15T07:32:41.552Z,12.30
2023-05-15T07:35:09.169Z,12.30
2023-05-15T07:37:36.495Z,12.20
2023-05-15T07:40:04.406Z,12.40
2023-05-15T07:42:31.457Z,12.40
2023-05-15T07:44:58.521Z,12.50
2023-05-15T07:47:25.838Z,12.30
2023-05-15T07:49:52.947Z,12.30
2023-05-15T07:52:20.493Z,12.40
2023-05-15T07:54:47.596Z,12.60
2023-05-15T07:57:15.644Z,12.60
2023-05-15T07:59:43.127Z,12.80
2023-05-15T08:02:10.308Z,12.60
2023-05-15T08:04:37.425Z,12.70
2023-05-15T08:07:04.768Z,12.70
2023-05-15T08:09:32.078Z,12.70
2023-05-15T08:12:21.132Z,12.90
2023-05-15T08:14:53.488Z,13.00
2023-05-15T08:17:21.809Z,13.00
2023-05-15T08:19:49.317Z,12.90
2023-05-15T08:22:17.104Z,13.00
2023-05-15T08:24:44.903Z,13.20
2023-05-15T08:27:12.011Z,13.10
2023-05-15T08:29:40.011Z,13.30
2023-05-15T08:32:09.112Z,13.30
2023-05-15T08:34:36.232Z,13.20
2023-05-15T08:37:05.044Z,13.20
2023-05-15T08:39:32.373Z,12.70
2023-05-15T08:42:45.449Z,12.40
2023-05-15T08:45:15.800Z,12.40
2023-05-15T08:47:44.226Z,12.70
2023-05-15T08:50:14.693Z,12.80
2023-05-15T08:52:49.630Z,13.00
2023-05-15T08:55:17.516Z,13.30
2023-05-15T08:57:46.276Z,13.30
2023-05-15T09:00:14.782Z,13.60
2023-05-15T09:02:43.182Z,13.80
2023-05-15T09:05:10.951Z,13.40
2023-05-15T09:07:42.585Z,13.80
2023-05-15T09:10:10.451Z,14.30
2023-05-15T09:12:42.061Z,15.00
2023-05-15T09:15:16.031Z,14.00
2023-05-15T09:17:43.656Z,14.30
2023-05-15T09:20:33.180Z,14.60
2023-05-15T09:23:02.509Z,14.00
2023-05-15T09:25:56.967Z,14.20
2023-05-15T09:28:32.296Z,14.50
2023-05-15T09:31:04.144Z,14.70
2023-05-15T09:33:33.833Z,14.90
2023-05-15T09:36:02.059Z,14.60
2023-05-15T09:38:30.931Z,14.80
2023-05-15T09:41:05.583Z,14.50
2023-05-15T09:43:40.746Z,14.60
2023-05-15T09:46:08.778Z,14.90
2023-05-15T09:48:36.198Z,15.00
2023-05-15T09:51:05.853Z,14.80
2023-05-15T09:53:33.163Z,14.80
2023-05-15T09:56:00.263Z,14.80
2023-05-15T09:58:27.394Z,14.80
2023-05-15T10:00:54.517Z,14.00
2023-05-15T10:03:22.001Z,13.80
2023-05-15T10:05:49.623Z,13.80
2023-05-15T10:08:26.263Z,14.00
2023-05-15T10:10:54.442Z,13.70
2023-05-15T10:13:22.739Z,14.10
2023-05-15T10:15:50.562Z,14.20
2023-05-15T10:18:20.575Z,14.60
2023-05-15T10:20:48.240Z,14.80
2023-05-15T10:23:19.119Z,14.70
2023-05-15T10:25:55.992Z,14.30
2023-05-15T10:28:23.781Z,14.10
2023-05-15T10:30:52.221Z,14.60
2023-05-15T10:33:20.883Z,14.90
2023-05-15T10:35:49.092Z,15.40
2023-05-15T10:38:17.275Z,15.10
2023-05-15T10:40:45.200Z,15.00
2023-05-15T10:43:14.159Z,15.90
2023-05-15T10:45:42.034Z,17.70
2023-05-15T10:48:12.434Z,17.70
2023-05-15T10:50:39.805Z,17.20
2023-05-15T10:53:09.132Z,17.00
2023-05-15T10:55:37.127Z,16.70
2023-05-15T10:58:10.104Z,16.50
2023-05-15T11:00:43.281Z,17.20
2023-05-15T11:03:45.014Z,17.00
2023-05-15T11:06:15.807Z,17.60
2023-05-15T11:08:45.191Z,16.90
2023-05-15T11:11:56.003Z,16.90
2023-05-15T11:14:35.959Z,18.10
2023-05-15T11:17:08.624Z,17.00
2023-05-15T11:20:09.410Z,17.00
2023-05-15T11:22:36.697Z,17.60
2023-05-15T11:25:09.616Z,17.40
2023-05-15T11:27:41.899Z,17.10
2023-05-15T11:30:22.929Z,17.30
2023-05-15T11:33:01.555Z,17.70
2023-05-15T11:35:47.120Z,17.00
2023-05-15T11:38:26.936Z,16.70
2023-05-15T11:41:03.570Z,16.80
2023-05-15T11:43:32.381Z,16.90
2023-05-15T11:46:08.206Z,16.70
2023-05-15T11:48:49.731Z,16.80
2023-05-15T11:51:20.174Z,17.50
2023-05-15T11:53:49.419Z,18.20
2023-05-15T11:56:24.872Z,19.10
2023-05-15T11:58:57.606Z,19.90
2023-05-15T12:01:25.093Z,18.70
2023-05-15T12:03:54.342Z,18.80
2023-05-15T12:06:22.752Z,17.50
2023-05-15T12:08:53.524Z,19.40
2023-05-15T12:11:24.847Z,18.30
2023-05-15T12:13:54.286Z,18.70
2023-05-15T12:16:28.572Z,19.80
2023-05-15T12:18:58.964Z,18.50
2023-05-15T12:21:29.033Z,19.80
2023-05-15T12:26:27.600Z,19.50
2023-05-15T12:28:55.716Z,19.70
2023-05-15T12:31:23.112Z,19.20
2023-05-15T12:33:50.455Z,19.00
2023-05-15T12:36:21.159Z,17.90
2023-05-15T12:38:49.507Z,17.40
2023-05-15T12:41:16.986Z,17.20
2023-05-15T12:43:44.128Z,17.40
2023-05-15T12:46:14.136Z,17.90
2023-05-15T12:48:41.323Z,18.40
2023-05-15T12:51:09.035Z,17.80
2023-05-15T12:53:39.664Z,17.90
2023-05-15T12:56:08.998Z,18.20
2023-05-15T12:58:37.664Z,18.20
2023-05-15T13:01:05.025Z,18.50
2023-05-15T13:03:32.985Z,18.70
2023-05-15T13:06:03.509Z,18.20
2023-05-15T13:08:30.605Z,19.00
2023-05-15T13:10:59.575Z,20.10
2023-05-15T13:14:08.446Z,19.80
2023-05-15T13:16:36.978Z,19.60
2023-05-15T13:19:04.642Z,19.40
2023-05-15T13:21:31.950Z,19.50
2023-05-15T13:23:59.089Z,19.50
2023-05-15T13:26:26.499Z,19.90
2023-05-15T13:28:53.546Z,20.50
2023-05-15T13:31:21.143Z,20.60
2023-05-15T13:33:48.743Z,20.40
2023-05-15T13:36:15.880Z,20.30
2023-05-15T13:38:43.164Z,20.40
2023-05-15T13:41:10.463Z,21.20
2023-05-15T13:43:37.727Z,21.20
2023-05-15T13:46:05.381Z,21.40
2023-05-15T13:48:32.575Z,21.80
2023-05-15T13:50:59.678Z,21.40
2023-05-15T13:53:27.290Z,19.90
2023-05-15T13:55:54.665Z,19.40
2023-05-15T13:58:21.824Z,18.70
2023-05-15T14:00:49.303Z,18.50
2023-05-15T14:03:16.484Z,18.60
2023-05-15T14:05:43.623Z,18.60
2023-05-15T14:08:11.147Z,18.70
2023-05-15T14:10:38.387Z,18.80
2023-05-15T14:13:05.539Z,18.50
2023-05-15T14:15:32.667Z,18.50
2023-05-15T14:17:59.760Z,18.20
2023-05-15T14:20:27.491Z,18.60
2023-05-15T14:22:54.731Z,19.00
2023-05-15T14:25:21.875Z,19.30
2023-05-15T14:27:48.960Z,19.70
2023-05-15T14:30:16.142Z,19.70
2023-05-15T14:32:43.199Z,20.20
2023-05-15T14:35:10.403Z,20.80
2023-05-15T14:37:37.756Z,20.90
2023-05-15T14:40:07.002Z,21.50
2023-05-15T14:42:34.048Z,20.20
2023-05-15T14:45:01.351Z,19.80
2023-05-15T14:47:29.974Z,19.30
2023-05-15T14:49:57.137Z,18.60
2023-05-15T14:52:24.226Z,18.70
2023-05-15T14:55:04.714Z,18.30
2023-05-15T14:57:35.502Z,17.70
2023-05-15T15:00:02.729Z,17.60
2023-05-15T15:02:29.900Z,17.80
2023-05-15T15:04:58.020Z,17.80
2023-05-15T15:07:30.778Z,17.40
2023-05-15T15:09:57.873Z,17.40
2023-05-15T15:12:24.966Z,16.80
2023-05-15T15:14:52.083Z,16.50
2023-05-15T15:17:19.191Z,16.20
2023-05-15T15:19:46.313Z,16.10
2023-05-15T15:22:13.333Z,16.10
2023-05-15T15:24:40.408Z,15.80
2023-05-15T15:27:07.511Z,15.40
2023-05-15T15:29:34.733Z,15.40
2023-05-15T15:32:01.870Z,15.60
2023-05-15T15:34:29.009Z,15.60
2023-05-15T15:36:56.395Z,15.40
2023-05-15T15:39:23.669Z,15.40
